createdAt,value
2018-03-30T00:02:01.563Z,55.00
2018-03-30T00:04:30.164Z,55.20
2018-03-30T00:06:58.078Z,55.10
2018-03-30T00:09:38.623Z,55.50
2018-03-30T00:12:06.373Z,55.50
2018-03-30T00:14:34.224Z,55.40
2018-03-30T00:17:02.084Z,55.10
2018-03-30T00:19:29.940Z,55.20
2018-03-30T00:21:57.779Z,54.80
2018-03-30T00:24:25.631Z,54.40
2018-03-30T00:26:53.482Z,54.50
2018-03-30T00:29:21.334Z,54.50
2018-03-30T00:31:49.083Z,54.50
2018-03-30T00:34:16.937Z,54.60
2018-03-30T00:36:44.790Z,54.40
2018-03-30T00:39:12.742Z,54.40
2018-03-30T00:41:40.493Z,54.00
2018-03-30T00:44:08.344Z,54.10
2018-03-30T00:46:36.197Z,54.40
2018-03-30T00:49:04.150Z,54.60
2018-03-30T00:51:32.003Z,54.80
2018-03-30T00:53:59.792Z,54.80
2018-03-30T00:56:27.605Z,55.10
2018-03-30T00:58:55.556Z,55.40
2018-03-30T01:01:23.511Z,55.30
2018-03-30T01:03:51.260Z,54.90
2018-03-30T01:06:19.115Z,54.70
2018-03-30T01:08:46.964Z,54.80
2018-03-30T01:11:14.826Z,54.70
2018-03-30T01:13:42.782Z,54.60
2018-03-30T01:16:11.444Z,55.20
2018-03-30T01:18:39.296Z,54.50
2018-03-30T01:21:07.146Z,54.30
2018-03-30T01:23:34.998Z,54.20
2018-03-30T01:26:02.849Z,54.10
2018-03-30T01:28:30.703Z,54.30
2018-03-30T01:30:58.553Z,53.90
2018-03-30T01:33:26.405Z,53.90
2018-03-30T01:35:54.256Z,53.90
2018-03-30T01:38:22.108Z,53.80
2018-03-30T01:40:49.960Z,54.20
2018-03-30T01:43:17.938Z,54.10
2018-03-30T01:45:46.584Z,54.50
2018-03-30T01:48:15.359Z,54.40
2018-03-30T01:50:43.315Z,54.40
2018-03-30T01:53:11.167Z,55.20
2018-03-30T01:55:39.020Z,54.10
2018-03-30T01:58:06.871Z,53.90
2018-03-30T02:00:34.722Z,54.10
2018-03-30T02:03:02.575Z,53.90
2018-03-30T02:05:30.426Z,53.70
2018-03-30T02:07:58.284Z,53.50
2018-03-30T02:10:26.129Z,53.70
2018-03-30T02:12:53.981Z,54.00
2018-03-30T02:15:21.736Z,54.10
2018-03-30T02:17:49.585Z,54.30
2018-03-30T02:20:17.433Z,54.30
2018-03-30T02:22:45.287Z,55.10
2018-03-30T02:25:13.139Z,54.70
2018-03-30T02:27:40.992Z,55.10
2018-03-30T02:30:08.845Z,55.50
2018-03-30T02:32:36.592Z,55.50
2018-03-30T02:35:04.444Z,55.50
2018-03-30T02:37:32.193Z,55.90
2018-03-30T02:40:00.045Z,56.30
2018-03-30T02:42:27.898Z,57.00
2018-03-30T02:44:55.751Z,57.50
2018-03-30T02:47:23.600Z,58.10
2018-03-30T02:49:51.452Z,58.30
2018-03-30T02:52:19.303Z,57.90
2018-03-30T02:54:47.097Z,57.90
2018-03-30T02:57:14.905Z,58.00
2018-03-30T02:59:42.858Z,58.30
2018-03-30T03:02:10.714Z,58.70
2018-03-30T03:04:38.565Z,59.30
2018-03-30T03:07:06.421Z,60.10
2018-03-30T03:09:34.166Z,60.80
2018-03-30T03:12:02.016Z,61.50
2018-03-30T03:14:29.869Z,62.20
2018-03-30T03:16:57.721Z,62.70
2018-03-30T03:19:25.576Z,63.00
2018-03-30T03:21:53.423Z,63.30
2018-03-30T03:24:21.275Z,63.00
2018-03-30T03:26:49.127Z,64.00
2018-03-30T03:29:17.696Z,64.40
2018-03-30T03:31:45.548Z,64.40
2018-03-30T03:34:13.501Z,63.60
2018-03-30T03:36:41.358Z,64.00
2018-03-30T03:39:09.143Z,64.60
2018-03-30T03:41:36.956Z,64.70
2018-03-30T03:44:04.808Z,64.80
2018-03-30T03:46:32.659Z,64.80
2018-03-30T03:49:00.587Z,64.90
2018-03-30T03:51:28.681Z,65.00
2018-03-30T03:53:57.238Z,65.20
2018-03-30T03:56:25.092Z,64.40
2018-03-30T03:58:52.942Z,64.00
2018-03-30T04:01:20.793Z,63.90
2018-03-30T04:03:48.645Z,63.50
2018-03-30T04:06:16.496Z,64.00
2018-03-30T04:08:44.349Z,64.30
2018-03-30T04:11:12.138Z,64.90
2018-03-30T04:13:39.953Z,64.60
2018-03-30T04:16:07.706Z,64.70
2018-03-30T04:18:35.556Z,64.40
2018-03-30T04:21:03.447Z,64.10
2018-03-30T04:23:31.358Z,64.60
2018-03-30T04:25:59.211Z,64.50
2018-03-30T04:28:27.063Z,64.00
2018-03-30T04:30:54.914Z,63.20
2018-03-30T04:33:22.870Z,63.70
2018-03-30T04:35:50.731Z,64.20
2018-03-30T04:38:18.570Z,64.80
2018-03-30T04:40:46.422Z,65.70
2018-03-30T04:43:14.275Z,66.00
2018-03-30T04:45:42.027Z,65.20
2018-03-30T04:48:09.879Z,64.90
2018-03-30T04:50:37.732Z,65.20
2018-03-30T04:53:05.582Z,65.30
2018-03-30T04:55:33.433Z,64.20
2018-03-30T04:58:01.285Z,64.80
2018-03-30T05:00:29.034Z,65.10
2018-03-30T05:02:56.886Z,65.30
2018-03-30T05:05:24.738Z,64.70
2018-03-30T05:07:52.617Z,64.40
2018-03-30T05:10:20.339Z,63.90
2018-03-30T05:12:48.086Z,63.60
2018-03-30T05:15:15.836Z,63.40
2018-03-30T05:17:43.688Z,64.00
2018-03-30T05:20:11.440Z,64.30
2018-03-30T05:22:39.293Z,64.70
2018-03-30T05:25:07.145Z,64.50
2018-03-30T05:27:34.997Z,65.00
2018-03-30T05:30:02.849Z,65.30
2018-03-30T05:32:30.703Z,65.60
2018-03-30T05:34:58.561Z,65.60
2018-03-30T05:37:27.167Z,65.30
2018-03-30T05:39:54.971Z,65.30
2018-03-30T05:42:22.822Z,65.20
2018-03-30T05:44:50.677Z,65.20
2018-03-30T05:47:18.630Z,65.20
2018-03-30T05:49:46.483Z,65.70
2018-03-30T05:52:14.332Z,64.70
2018-03-30T05:54:42.192Z,65.40
2018-03-30T05:57:10.039Z,66.30
2018-03-30T05:59:37.892Z,65.20
2018-03-30T06:02:05.757Z,65.60
2018-03-30T06:04:34.252Z,65.80
2018-03-30T06:07:02.166Z,65.60
2018-03-30T06:09:29.952Z,65.90
2018-03-30T06:11:57.763Z,65.90
2018-03-30T06:14:25.717Z,65.90
2018-03-30T06:16:53.715Z,66.20
2018-03-30T06:19:21.544Z,66.50
2018-03-30T06:21:50.092Z,67.00
2018-03-30T06:24:17.943Z,66.80
2018-03-30T06:26:45.806Z,67.20
2018-03-30T06:29:13.752Z,67.40
2018-03-30T06:31:41.713Z,66.60
2018-03-30T06:34:09.457Z,67.40
2018-03-30T06:36:38.191Z,67.50
2018-03-30T06:39:06.100Z,67.70
2018-03-30T06:41:34.650Z,67.00
2018-03-30T06:44:02.606Z,67.00
2018-03-30T06:46:30.457Z,67.20
2018-03-30T06:48:58.306Z,67.60
2018-03-30T06:51:26.004Z,68.20
2018-03-30T06:53:53.806Z,67.70
2018-03-30T06:56:21.758Z,67.60
2018-03-30T06:58:49.610Z,67.30
2018-03-30T07:01:17.477Z,67.20
2018-03-30T07:03:45.317Z,66.80
2018-03-30T07:06:13.172Z,66.80
2018-03-30T07:08:40.958Z,66.70
2018-03-30T07:11:08.769Z,67.50
2018-03-30T07:13:36.620Z,66.50
2018-03-30T07:16:04.577Z,66.40
2018-03-30T07:18:32.426Z,66.30
2018-03-30T07:21:00.112Z,66.40
2018-03-30T07:23:27.925Z,66.20
2018-03-30T07:25:55.776Z,65.40
2018-03-30T07:28:23.628Z,64.90
2018-03-30T07:30:51.480Z,65.00
2018-03-30T07:33:19.332Z,65.00
2018-03-30T07:35:47.183Z,64.90
2018-03-30T07:38:15.036Z,64.80
2018-03-30T07:40:42.992Z,64.80
2018-03-30T07:43:10.844Z,64.40
2018-03-30T07:45:38.695Z,64.30
2018-03-30T07:48:06.548Z,64.10
2018-03-30T07:50:34.399Z,64.00
2018-03-30T07:53:02.252Z,63.90
2018-03-30T07:55:30.017Z,63.70
2018-03-30T07:57:57.851Z,63.90
2018-03-30T08:00:25.601Z,63.70
2018-03-30T08:02:53.457Z,63.80
2018-03-30T08:05:21.208Z,63.90
2018-03-30T08:07:49.054Z,64.00
2018-03-30T08:10:16.805Z,63.50
2018-03-30T08:12:44.657Z,63.70
2018-03-30T08:15:12.509Z,64.00
2018-03-30T08:17:40.361Z,63.80
2018-03-30T08:20:08.213Z,63.00
2018-03-30T08:22:35.989Z,63.10
2018-03-30T08:25:04.634Z,62.70
2018-03-30T08:27:32.486Z,62.50
2018-03-30T08:30:00.233Z,62.20
2018-03-30T08:32:27.983Z,62.40
2018-03-30T08:34:55.834Z,62.80
2018-03-30T08:37:23.529Z,62.70
2018-03-30T08:39:51.333Z,62.60
2018-03-30T08:42:19.185Z,62.90
2018-03-30T08:44:47.036Z,63.00
2018-03-30T08:47:14.888Z,62.50
2018-03-30T08:49:42.640Z,62.50
2018-03-30T08:52:10.389Z,62.80
2018-03-30T08:54:38.241Z,63.40
2018-03-30T08:57:06.094Z,62.70
2018-03-30T08:59:33.945Z,62.90
2018-03-30T09:02:01.797Z,63.20
2018-03-30T09:04:29.649Z,63.20
2018-03-30T09:06:57.397Z,63.20
2018-03-30T09:09:25.145Z,63.10
2018-03-30T09:11:52.998Z,63.60
2018-03-30T09:14:20.849Z,62.90
2018-03-30T09:16:48.598Z,63.90
2018-03-30T09:19:16.451Z,64.30
2018-03-30T09:21:44.303Z,64.00
2018-03-30T09:24:12.156Z,64.00
2018-03-30T09:26:39.906Z,64.30
2018-03-30T09:29:07.757Z,64.30
2018-03-30T09:31:35.712Z,65.10
2018-03-30T09:34:03.461Z,65.40
2018-03-30T09:36:31.314Z,65.10
2018-03-30T09:38:59.165Z,65.70
2018-03-30T09:41:27.017Z,65.30
2018-03-30T09:43:54.867Z,65.80
2018-03-30T09:46:22.822Z,66.50
2018-03-30T09:48:50.678Z,67.20
2018-03-30T09:51:18.525Z,67.10
2018-03-30T09:53:46.378Z,67.20
2018-03-30T09:56:14.230Z,67.70
2018-03-30T09:58:42.083Z,67.30
2018-03-30T10:01:15.565Z,67.10
2018-03-30T10:03:43.415Z,67.30
2018-03-30T10:06:11.167Z,67.70
2018-03-30T10:08:38.917Z,67.70
2018-03-30T10:11:06.769Z,67.60
2018-03-30T10:13:34.622Z,67.30
2018-03-30T10:16:02.474Z,68.20
2018-03-30T10:18:30.325Z,68.10
2018-03-30T10:20:58.074Z,67.60
2018-03-30T10:23:25.926Z,67.00
2018-03-30T10:25:53.882Z,65.90
2018-03-30T10:28:22.447Z,64.70
2018-03-30T10:30:50.197Z,64.50
2018-03-30T10:33:17.947Z,64.60
2018-03-30T10:35:45.797Z,63.70
2018-03-30T10:38:13.759Z,63.50
2018-03-30T10:40:41.503Z,63.40
2018-03-30T10:43:09.253Z,63.20
2018-03-30T10:45:37.207Z,62.90
2018-03-30T10:48:05.059Z,62.00
2018-03-30T10:50:32.910Z,62.50
2018-03-30T10:53:00.660Z,62.50
2018-03-30T10:55:28.510Z,62.00
2018-03-30T10:57:56.362Z,61.20
2018-03-30T11:00:24.168Z,61.40
2018-03-30T11:02:51.963Z,61.50
2018-03-30T11:05:19.875Z,61.10
2018-03-30T11:07:47.669Z,61.00
2018-03-30T11:10:15.522Z,60.80
2018-03-30T11:12:43.377Z,60.10
2018-03-30T11:15:11.124Z,60.00
2018-03-30T11:17:38.975Z,59.70
2018-03-30T11:20:06.723Z,59.70
2018-03-30T11:22:34.577Z,58.60
2018-03-30T11:25:02.429Z,58.60
2018-03-30T11:27:30.387Z,57.70
2018-03-30T11:29:58.233Z,57.60
2018-03-30T11:32:26.085Z,57.30
2018-03-30T11:34:53.834Z,57.20
2018-03-30T11:37:21.685Z,55.50
2018-03-30T11:39:49.537Z,56.30
2018-03-30T11:42:17.391Z,55.20
2018-03-30T11:44:46.167Z,54.90
2018-03-30T11:47:14.013Z,55.50
2018-03-30T11:49:41.766Z,55.00
2018-03-30T11:52:09.618Z,55.30
2018-03-30T11:54:37.483Z,55.10
2018-03-30T11:57:05.230Z,55.20
2018-03-30T11:59:33.174Z,55.80
2018-03-30T12:02:01.027Z,55.10
2018-03-30T12:04:28.787Z,53.30
2018-03-30T12:06:56.636Z,53.80
2018-03-30T12:09:24.480Z,53.80
2018-03-30T12:11:52.226Z,51.30
2018-03-30T12:14:19.975Z,51.00
2018-03-30T12:16:47.827Z,51.00
2018-03-30T12:19:15.686Z,50.40
2018-03-30T12:21:44.256Z,51.50
2018-03-30T12:24:12.044Z,51.50
2018-03-30T12:26:39.855Z,52.00
2018-03-30T12:29:07.600Z,50.70
2018-03-30T12:31:35.452Z,51.50
2018-03-30T12:34:03.202Z,51.20
2018-03-30T12:36:30.952Z,50.70
2018-03-30T12:38:58.807Z,52.10
2018-03-30T12:41:26.655Z,51.60
2018-03-30T12:43:54.507Z,52.60
2018-03-30T12:46:22.255Z,52.50
2018-03-30T12:48:50.004Z,51.10
2018-03-30T12:51:17.856Z,51.60
2018-03-30T12:53:45.605Z,52.80
2018-03-30T12:56:13.470Z,52.00
2018-03-30T12:58:41.211Z,52.30
2018-03-30T13:01:09.061Z,49.20
2018-03-30T13:03:36.913Z,47.90
2018-03-30T13:06:04.764Z,49.20
2018-03-30T13:08:32.830Z,50.20
2018-03-30T13:11:00.672Z,50.70
2018-03-30T13:13:28.524Z,50.60
2018-03-30T13:15:56.311Z,51.20
2018-03-30T13:18:24.842Z,49.40
2018-03-30T13:20:52.693Z,49.40
2018-03-30T13:23:20.545Z,50.90
2018-03-30T13:25:48.295Z,50.70
2018-03-30T13:28:16.043Z,51.40
2018-03-30T13:30:43.997Z,51.80
2018-03-30T13:33:11.749Z,51.50
2018-03-30T13:35:39.601Z,49.20
2018-03-30T13:38:07.350Z,48.50
2018-03-30T13:40:35.203Z,48.90
2018-03-30T13:43:02.951Z,49.50
2018-03-30T13:45:30.816Z,48.60
2018-03-30T13:47:58.656Z,50.90
2018-03-30T13:50:28.248Z,51.00
2018-03-30T13:53:01.771Z,51.70
2018-03-30T13:55:29.585Z,51.70
2018-03-30T13:58:09.148Z,49.20
2018-03-30T14:00:38.702Z,49.80
2018-03-30T14:03:10.446Z,49.80
2018-03-30T14:06:05.839Z,50.00
2018-03-30T14:08:39.424Z,48.60
2018-03-30T14:11:24.681Z,49.60
2018-03-30T14:13:52.532Z,49.50
2018-03-30T14:16:23.150Z,48.70
2018-03-30T14:18:58.887Z,49.10
2018-03-30T14:21:30.526Z,49.90
2018-03-30T14:23:59.196Z,48.50
2018-03-30T14:26:43.634Z,48.50
2018-03-30T14:29:13.563Z,47.20
2018-03-30T14:31:53.265Z,51.00
2018-03-30T14:34:23.676Z,50.40
2018-03-30T14:37:01.256Z,50.50
2018-03-30T14:39:29.927Z,50.10
2018-03-30T14:41:57.778Z,48.70
2018-03-30T14:44:29.214Z,49.40
2018-03-30T14:46:58.809Z,48.80
2018-03-30T14:49:31.573Z,49.60
2018-03-30T14:55:15.614Z,49.60
2018-03-30T14:57:48.270Z,49.60
2018-03-30T15:00:18.065Z,49.30
2018-03-30T15:02:47.248Z,47.80
2018-03-30T15:05:24.762Z,47.40
2018-03-30T15:08:02.101Z,49.60
2018-03-30T15:10:37.429Z,49.60
2018-03-30T15:13:05.997Z,48.50
2018-03-30T15:18:49.106Z,49.70
2018-03-30T15:21:18.492Z,49.00
2018-03-30T15:23:48.192Z,49.00
2018-03-30T15:26:19.965Z,50.20
2018-03-30T15:28:48.705Z,49.70
2018-03-30T15:31:30.013Z,50.40
2018-03-30T15:33:58.680Z,49.40
2018-03-30T15:39:25.603Z,50.80
2018-03-30T15:41:55.268Z,49.40
2018-03-30T15:44:23.120Z,49.40
2018-03-30T15:46:50.972Z,49.70
2018-03-30T15:49:19.848Z,50.50
2018-03-30T15:51:48.518Z,50.60
2018-03-30T15:54:15.858Z,51.20
2018-03-30T15:56:58.558Z,50.00
2018-03-30T15:59:26.411Z,50.70
2018-03-30T16:01:54.264Z,49.50
2018-03-30T16:04:22.121Z,48.40
2018-03-30T16:06:49.862Z,49.50
2018-03-30T16:09:21.403Z,48.50
2018-03-30T16:11:55.723Z,47.70
2018-03-30T16:14:23.863Z,49.10
2018-03-30T16:16:51.714Z,49.30
2018-03-30T16:19:19.053Z,49.00
2018-03-30T16:21:46.392Z,49.50
2018-03-30T16:24:13.741Z,49.70
2018-03-30T16:26:41.076Z,51.40
2018-03-30T16:29:08.416Z,50.90
2018-03-30T16:31:35.755Z,51.40
2018-03-30T16:34:03.096Z,50.60
2018-03-30T16:36:30.437Z,51.50
2018-03-30T16:38:57.716Z,50.80
2018-03-30T16:41:24.916Z,50.80
2018-03-30T16:43:52.251Z,50.60
2018-03-30T16:46:19.588Z,51.20
2018-03-30T16:48:46.927Z,51.30
2018-03-30T16:51:14.272Z,51.60
2018-03-30T16:53:41.611Z,52.20
2018-03-30T16:56:08.950Z,52.00
2018-03-30T16:58:36.289Z,51.70
2018-03-30T17:01:03.633Z,51.80
2018-03-30T17:03:30.969Z,52.20
2018-03-30T17:05:58.309Z,52.40
2018-03-30T17:08:25.631Z,52.40
2018-03-30T17:10:52.987Z,52.50
2018-03-30T17:13:20.331Z,52.50
2018-03-30T17:15:47.975Z,52.60
2018-03-30T17:18:15.252Z,53.00
2018-03-30T17:20:43.483Z,53.30
2018-03-30T17:23:11.533Z,53.50
2018-03-30T17:25:38.875Z,53.50
2018-03-30T17:28:06.213Z,53.70
2018-03-30T17:30:33.565Z,53.60
2018-03-30T17:33:00.996Z,54.10
2018-03-30T17:35:29.152Z,54.80
2018-03-30T17:37:56.492Z,54.20
2018-03-30T17:40:23.901Z,53.50
2018-03-30T17:42:51.185Z,53.70
2018-03-30T17:45:18.615Z,53.50
2018-03-30T17:47:46.057Z,54.00
2018-03-30T17:50:13.607Z,54.00
2018-03-30T17:52:41.201Z,54.20
2018-03-30T17:55:08.429Z,54.40
2018-03-30T17:57:35.832Z,54.80
2018-03-30T18:00:03.171Z,54.40
2018-03-30T18:02:30.508Z,54.90
2018-03-30T18:04:57.855Z,54.70
2018-03-30T18:07:25.157Z,54.50
2018-03-30T18:09:52.632Z,55.50
2018-03-30T18:12:19.968Z,55.00
2018-03-30T18:14:47.306Z,55.30
2018-03-30T18:17:14.545Z,55.50
2018-03-30T18:19:41.895Z,55.20
2018-03-30T18:22:09.333Z,55.10
2018-03-30T18:24:36.674Z,55.30
2018-03-30T18:27:04.012Z,55.50
2018-03-30T18:29:31.352Z,55.70
2018-03-30T18:31:58.693Z,55.50
2018-03-30T18:34:26.032Z,55.70
2018-03-30T18:36:53.371Z,55.70
2018-03-30T18:39:20.713Z,55.90
2018-03-30T18:41:48.052Z,56.40
2018-03-30T18:44:15.391Z,56.60
2018-03-30T18:46:42.733Z,56.90
2018-03-30T18:49:09.971Z,57.10
2018-03-30T18:51:37.320Z,57.40
2018-03-30T18:54:04.653Z,57.80
2018-03-30T18:56:31.994Z,57.90
2018-03-30T18:58:59.229Z,58.00
2018-03-30T19:01:26.539Z,58.40
2018-03-30T19:03:53.912Z,59.30
2018-03-30T19:06:21.104Z,61.10
2018-03-30T19:08:48.585Z,62.80
2018-03-30T19:11:15.925Z,64.50
2018-03-30T19:13:43.298Z,65.70
2018-03-30T19:16:11.325Z,69.50
2018-03-30T19:18:38.674Z,69.50
2018-03-30T19:21:06.005Z,71.00
2018-03-30T19:23:33.232Z,72.10
2018-03-30T19:26:00.420Z,73.20
2018-03-30T19:28:27.651Z,73.50
2018-03-30T19:30:55.672Z,73.70
2018-03-30T19:33:23.011Z,73.50
2018-03-30T19:35:50.407Z,74.20
2018-03-30T19:38:17.692Z,75.20
2018-03-30T19:40:45.028Z,75.30
2018-03-30T19:43:12.371Z,75.00
2018-03-30T19:45:39.711Z,74.40
2018-03-30T19:48:07.049Z,74.70
2018-03-30T19:50:34.389Z,75.50
2018-03-30T19:55:25.938Z,76.50
2018-03-30T19:57:53.137Z,77.20
2018-03-30T20:00:20.484Z,77.60
2018-03-30T20:02:47.817Z,77.80
2018-03-30T20:05:15.008Z,78.10
2018-03-30T20:07:42.289Z,78.30
2018-03-30T20:10:09.737Z,78.60
2018-03-30T20:12:37.008Z,78.70
2018-03-30T20:15:04.308Z,78.60
2018-03-30T20:17:31.647Z,78.90
2018-03-30T20:19:58.924Z,79.20
2018-03-30T20:22:26.224Z,79.70
2018-03-30T20:24:53.564Z,80.10
2018-03-30T20:27:20.904Z,80.10
2018-03-30T20:29:48.188Z,80.10
2018-03-30T20:32:15.368Z,80.20
2018-03-30T20:34:42.721Z,80.50
2018-03-30T20:37:09.944Z,80.60
2018-03-30T20:39:37.128Z,80.70
2018-03-30T20:42:05.153Z,80.50
2018-03-30T20:44:32.390Z,80.50
2018-03-30T20:46:59.633Z,80.00
2018-03-30T20:49:26.821Z,79.30
2018-03-30T20:51:54.098Z,78.90
2018-03-30T20:54:21.460Z,78.70
2018-03-30T20:56:49.497Z,78.50
2018-03-30T20:59:16.774Z,79.40
2018-03-30T21:01:44.073Z,78.60
2018-03-30T21:04:14.484Z,78.30
2018-03-30T21:06:41.826Z,78.30
2018-03-30T21:09:09.165Z,78.00
2018-03-30T21:11:36.504Z,78.20
2018-03-30T21:14:03.733Z,78.00
2018-03-30T21:16:30.979Z,78.20
2018-03-30T21:18:58.318Z,78.80
2018-03-30T21:21:25.659Z,78.50
2018-03-30T21:23:53.001Z,77.10
2018-03-30T21:26:20.442Z,77.20
2018-03-30T21:28:47.885Z,77.70
2018-03-30T21:31:15.228Z,78.00
2018-03-30T21:33:42.564Z,77.30
2018-03-30T21:36:09.843Z,76.80
2018-03-30T21:38:37.244Z,76.80
2018-03-30T21:41:04.584Z,77.00
2018-03-30T21:43:31.927Z,77.70
2018-03-30T21:45:59.262Z,78.30
2018-03-30T21:48:26.602Z,78.20
2018-03-30T21:50:54.044Z,78.60
2018-03-30T21:53:21.384Z,78.40
2018-03-30T21:55:48.724Z,77.90
2018-03-30T21:58:15.908Z,78.20
2018-03-30T22:00:43.132Z,78.60
2018-03-30T22:03:11.094Z,78.40
2018-03-30T22:05:38.392Z,78.40
2018-03-30T22:08:05.735Z,78.80
2018-03-30T22:10:32.969Z,78.40
2018-03-30T22:13:00.308Z,78.20
2018-03-30T22:15:27.649Z,77.80
2018-03-30T22:17:55.090Z,77.90
2018-03-30T22:20:22.430Z,77.50
2018-03-30T22:22:49.770Z,77.80
2018-03-30T22:25:17.047Z,77.20
2018-03-30T22:27:45.088Z,77.20
2018-03-30T22:30:12.309Z,77.20
2018-03-30T22:32:39.487Z,77.40
2018-03-30T22:35:06.708Z,77.20
2018-03-30T22:37:34.937Z,77.30
2018-03-30T22:40:02.378Z,77.30
2018-03-30T22:42:29.617Z,77.40
2018-03-30T22:44:57.009Z,77.90
2018-03-30T22:47:24.232Z,78.20
2018-03-30T22:49:51.636Z,78.40
2018-03-30T22:52:19.693Z,78.30
2018-03-30T22:54:47.032Z,78.30
2018-03-30T22:57:14.473Z,78.60
2018-03-30T22:59:41.816Z,78.20
2018-03-30T23:02:09.155Z,78.20
2018-03-30T23:04:36.495Z,77.90
2018-03-30T23:07:03.893Z,77.90
2018-03-30T23:09:31.175Z,77.40
2018-03-30T23:11:58.619Z,76.50
2018-03-30T23:14:25.956Z,77.30
2018-03-30T23:16:53.397Z,77.00
2018-03-30T23:19:20.738Z,78.00
2018-03-30T23:21:48.076Z,77.00
2018-03-30T23:24:15.417Z,76.30
2018-03-30T23:26:42.760Z,76.30
2018-03-30T23:29:10.100Z,76.50
2018-03-30T23:31:37.440Z,76.90
2018-03-30T23:34:04.779Z,77.50
2018-03-30T23:36:32.109Z,77.20
2018-03-30T23:38:59.458Z,76.60
2018-03-30T23:41:26.798Z,76.20
2018-03-30T23:43:54.137Z,76.00
2018-03-30T23:46:21.478Z,76.10
2018-03-30T23:48:48.816Z,76.20
2018-03-30T23:51:16.157Z,76.30
2018-03-30T23:53:43.601Z,76.80
2018-03-30T23:56:10.941Z,75.40
2018-03-30T23:58:38.281Z,75.10
